sensor_id;sensor_type;location;lat;lon;timestamp;P1;durP1;ratioP1;P2;durP2;ratioP2
18499;SDS011;9379;52.134;11.576;2023-12-14T00:02:01;3.30;;;3.00;;
18499;SDS011;9379;52.134;11.576;2023-12-14T00:04:28;2.92;;;2.63;;
18499;SDS011;9379;52.134;11.576;2023-12-14T00:06:55;3.17;;;2.97;;
18499;SDS011;9379;52.134;11.576;2023-12-14T00:09:22;3.78;;;3.42;;
18499;SDS011;9379;52.134;11.576;2023-12-14T00:11:49;3.85;;;3.55;;
18499;SDS011;9379;52.134;11.576;2023-12-14T00:14:17;3.70;;;3.40;;
18499;SDS011;9379;52.134;11.576;2023-12-14T00:16:44;3.33;;;3.03;;
18499;SDS011;9379;52.134;11.576;2023-12-14T00:19:11;3.80;;;3.35;;
18499;SDS011;9379;52.134;11.576;2023-12-14T00:21:38;3.95;;;3.67;;
18499;SDS011;9379;52.134;11.576;2023-12-14T00:24:05;3.80;;;3.45;;
18499;SDS011;9379;52.134;11.576;2023-12-14T00:26:32;5.55;;;5.00;;
18499;SDS011;9379;52.134;11.576;2023-12-14T00:28:59;4.43;;;4.03;;
18499;SDS011;9379;52.134;11.576;2023-12-14T00:31:28;3.92;;;3.53;;
18499;SDS011;9379;52.134;11.576;2023-12-14T00:33:55;5.75;;;5.25;;
18499;SDS011;9379;52.134;11.576;2023-12-14T00:36:22;5.47;;;4.72;;
18499;SDS011;9379;52.134;11.576;2023-12-14T00:38:48;5.13;;;4.65;;
18499;SDS011;9379;52.134;11.576;2023-12-14T00:41:15;4.45;;;4.05;;
18499;SDS011;9379;52.134;11.576;2023-12-14T00:43:42;5.30;;;4.43;;
18499;SDS011;9379;52.134;11.576;2023-12-14T00:46:09;3.42;;;3.13;;
18499;SDS011;9379;52.134;11.576;2023-12-14T00:48:37;4.30;;;3.65;;
18499;SDS011;9379;52.134;11.576;2023-12-14T00:51:04;3.85;;;3.58;;
18499;SDS011;9379;52.134;11.576;2023-12-14T00:53:31;4.75;;;4.13;;
18499;SDS011;9379;52.134;11.576;2023-12-14T00:55:58;5.03;;;4.20;;
18499;SDS011;9379;52.134;11.576;2023-12-14T00:58:25;6.07;;;5.50;;
18499;SDS011;9379;52.134;11.576;2023-12-14T01:00:52;4.75;;;4.35;;
18499;SDS011;9379;52.134;11.576;2023-12-14T01:03:20;4.10;;;3.80;;
18499;SDS011;9379;52.134;11.576;2023-12-14T01:05:52;3.45;;;3.25;;
18499;SDS011;9379;52.134;11.576;2023-12-14T01:08:19;4.80;;;4.30;;
18499;SDS011;9379;52.134;11.576;2023-12-14T01:10:46;4.35;;;4.05;;
18499;SDS011;9379;52.134;11.576;2023-12-14T01:13:13;4.00;;;3.70;;
18499;SDS011;9379;52.134;11.576;2023-12-14T01:15:39;5.85;;;4.88;;
18499;SDS011;9379;52.134;11.576;2023-12-14T01:18:06;5.80;;;4.88;;
18499;SDS011;9379;52.134;11.576;2023-12-14T01:20:33;3.45;;;3.15;;
18499;SDS011;9379;52.134;11.576;2023-12-14T01:23:02;4.75;;;4.28;;
18499;SDS011;9379;52.134;11.576;2023-12-14T01:25:29;4.32;;;3.92;;
18499;SDS011;9379;52.134;11.576;2023-12-14T01:27:56;5.35;;;4.85;;
18499;SDS011;9379;52.134;11.576;2023-12-14T01:30:25;3.90;;;3.55;;
18499;SDS011;9379;52.134;11.576;2023-12-14T01:32:52;6.82;;;3.60;;
18499;SDS011;9379;52.134;11.576;2023-12-14T01:35:18;4.72;;;4.32;;
18499;SDS011;9379;52.134;11.576;2023-12-14T01:37:45;5.53;;;4.90;;
18499;SDS011;9379;52.134;11.576;2023-12-14T01:40:14;5.00;;;4.60;;
18499;SDS011;9379;52.134;11.576;2023-12-14T01:42:45;6.70;;;5.05;;
18499;SDS011;9379;52.134;11.576;2023-12-14T01:45:12;5.32;;;4.32;;
18499;SDS011;9379;52.134;11.576;2023-12-14T01:47:41;5.30;;;4.45;;
18499;SDS011;9379;52.134;11.576;2023-12-14T01:50:08;4.82;;;4.35;;
18499;SDS011;9379;52.134;11.576;2023-12-14T01:52:35;5.05;;;4.55;;
18499;SDS011;9379;52.134;11.576;2023-12-14T01:55:02;4.50;;;3.97;;
18499;SDS011;9379;52.134;11.576;2023-12-14T01:57:31;5.07;;;4.60;;
18499;SDS011;9379;52.134;11.576;2023-12-14T01:59:58;6.32;;;3.65;;
18499;SDS011;9379;52.134;11.576;2023-12-14T02:02:25;3.53;;;3.25;;
18499;SDS011;9379;52.134;11.576;2023-12-14T02:04:52;4.22;;;3.70;;
18499;SDS011;9379;52.134;11.576;2023-12-14T02:07:19;5.55;;;3.95;;
18499;SDS011;9379;52.134;11.576;2023-12-14T02:09:46;6.18;;;5.18;;
18499;SDS011;9379;52.134;11.576;2023-12-14T02:12:15;7.72;;;4.53;;
18499;SDS011;9379;52.134;11.576;2023-12-14T02:14:44;4.45;;;4.05;;
18499;SDS011;9379;52.134;11.576;2023-12-14T02:17:11;4.30;;;3.92;;
18499;SDS011;9379;52.134;11.576;2023-12-14T02:19:38;5.05;;;4.57;;
18499;SDS011;9379;52.134;11.576;2023-12-14T02:22:05;7.10;;;5.18;;
18499;SDS011;9379;52.134;11.576;2023-12-14T02:24:33;6.60;;;5.40;;
18499;SDS011;9379;52.134;11.576;2023-12-14T02:27:00;5.63;;;4.90;;
18499;SDS011;9379;52.134;11.576;2023-12-14T02:29:27;4.45;;;4.00;;
18499;SDS011;9379;52.134;11.576;2023-12-14T02:31:54;5.20;;;4.70;;
18499;SDS011;9379;52.134;11.576;2023-12-14T02:34:21;4.60;;;4.10;;
18499;SDS011;9379;52.134;11.576;2023-12-14T02:36:50;5.32;;;4.57;;
18499;SDS011;9379;52.134;11.576;2023-12-14T02:39:17;4.45;;;4.00;;
18499;SDS011;9379;52.134;11.576;2023-12-14T02:41:45;8.05;;;5.60;;
18499;SDS011;9379;52.134;11.576;2023-12-14T02:44:12;5.10;;;4.65;;
18499;SDS011;9379;52.134;11.576;2023-12-14T02:46:38;4.50;;;3.95;;
18499;SDS011;9379;52.134;11.576;2023-12-14T02:49:05;6.93;;;4.78;;
18499;SDS011;9379;52.134;11.576;2023-12-14T02:51:32;5.53;;;5.03;;
18499;SDS011;9379;52.134;11.576;2023-12-14T02:53:59;5.93;;;4.60;;
18499;SDS011;9379;52.134;11.576;2023-12-14T02:56:26;5.50;;;5.03;;
18499;SDS011;9379;52.134;11.576;2023-12-14T02:58:54;5.35;;;4.80;;
18499;SDS011;9379;52.134;11.576;2023-12-14T03:01:21;4.55;;;4.20;;
18499;SDS011;9379;52.134;11.576;2023-12-14T03:03:48;4.18;;;3.88;;
18499;SDS011;9379;52.134;11.576;2023-12-14T03:06:15;4.38;;;3.97;;
18499;SDS011;9379;52.134;11.576;2023-12-14T03:08:42;3.92;;;3.63;;
18499;SDS011;9379;52.134;11.576;2023-12-14T03:11:09;6.38;;;4.38;;
18499;SDS011;9379;52.134;11.576;2023-12-14T03:13:36;4.80;;;3.97;;
18499;SDS011;9379;52.134;11.576;2023-12-14T03:16:05;6.05;;;4.88;;
18499;SDS011;9379;52.134;11.576;2023-12-14T03:18:32;5.03;;;4.63;;
18499;SDS011;9379;52.134;11.576;2023-12-14T03:20:59;5.97;;;4.85;;
18499;SDS011;9379;52.134;11.576;2023-12-14T03:23:26;3.95;;;3.53;;
18499;SDS011;9379;52.134;11.576;2023-12-14T03:25:53;3.95;;;3.65;;
18499;SDS011;9379;52.134;11.576;2023-12-14T03:28:20;3.55;;;3.25;;
18499;SDS011;9379;52.134;11.576;2023-12-14T03:30:47;5.57;;;3.38;;
18499;SDS011;9379;52.134;11.576;2023-12-14T03:33:15;4.65;;;4.20;;
18499;SDS011;9379;52.134;11.576;2023-12-14T03:35:42;4.63;;;3.65;;
18499;SDS011;9379;52.134;11.576;2023-12-14T03:38:09;3.90;;;3.58;;
18499;SDS011;9379;52.134;11.576;2023-12-14T03:40:36;3.63;;;3.33;;
18499;SDS011;9379;52.134;11.576;2023-12-14T03:43:03;4.05;;;3.42;;
18499;SDS011;9379;52.134;11.576;2023-12-14T03:45:29;6.35;;;3.72;;
18499;SDS011;9379;52.134;11.576;2023-12-14T03:47:56;3.97;;;3.55;;
18499;SDS011;9379;52.134;11.576;2023-12-14T03:50:25;3.70;;;3.35;;
18499;SDS011;9379;52.134;11.576;2023-12-14T03:52:53;3.95;;;3.65;;
18499;SDS011;9379;52.134;11.576;2023-12-14T03:55:20;4.07;;;3.78;;
18499;SDS011;9379;52.134;11.576;2023-12-14T03:57:46;4.90;;;3.25;;
18499;SDS011;9379;52.134;11.576;2023-12-14T04:00:14;4.28;;;3.97;;
18499;SDS011;9379;52.134;11.576;2023-12-14T04:02:41;3.72;;;3.42;;
18499;SDS011;9379;52.134;11.576;2023-12-14T04:05:08;4.00;;;3.70;;
18499;SDS011;9379;52.134;11.576;2023-12-14T04:07:37;3.40;;;3.10;;
18499;SDS011;9379;52.134;11.576;2023-12-14T04:10:06;5.13;;;3.92;;
18499;SDS011;9379;52.134;11.576;2023-12-14T04:12:33;4.38;;;3.97;;
18499;SDS011;9379;52.134;11.576;2023-12-14T04:15:00;3.47;;;3.17;;
18499;SDS011;9379;52.134;11.576;2023-12-14T04:17:30;3.83;;;3.53;;
18499;SDS011;9379;52.134;11.576;2023-12-14T04:19:58;5.13;;;3.67;;
18499;SDS011;9379;52.134;11.576;2023-12-14T04:22:25;4.20;;;3.83;;
18499;SDS011;9379;52.134;11.576;2023-12-14T04:24:54;3.05;;;2.85;;
18499;SDS011;9379;52.134;11.576;2023-12-14T04:27:21;3.65;;;3.35;;
18499;SDS011;9379;52.134;11.576;2023-12-14T04:29:52;2.45;;;2.25;;
18499;SDS011;9379;52.134;11.576;2023-12-14T04:32:19;3.20;;;2.92;;
18499;SDS011;9379;52.134;11.576;2023-12-14T04:34:45;3.70;;;3.25;;
18499;SDS011;9379;52.134;11.576;2023-12-14T04:37:12;3.88;;;3.50;;
18499;SDS011;9379;52.134;11.576;2023-12-14T04:39:39;4.72;;;4.22;;
18499;SDS011;9379;52.134;11.576;2023-12-14T04:42:08;4.10;;;3.70;;
18499;SDS011;9379;52.134;11.576;2023-12-14T04:44:34;4.05;;;3.65;;
18499;SDS011;9379;52.134;11.576;2023-12-14T04:47:01;2.63;;;2.45;;
18499;SDS011;9379;52.134;11.576;2023-12-14T04:49:28;4.32;;;3.72;;
18499;SDS011;9379;52.134;11.576;2023-12-14T04:51:55;4.55;;;4.15;;
18499;SDS011;9379;52.134;11.576;2023-12-14T04:54:22;4.60;;;4.20;;
18499;SDS011;9379;52.134;11.576;2023-12-14T04:56:49;4.10;;;3.75;;
18499;SDS011;9379;52.134;11.576;2023-12-14T04:59:17;4.10;;;3.60;;
18499;SDS011;9379;52.134;11.576;2023-12-14T05:01:44;4.47;;;3.92;;
18499;SDS011;9379;52.134;11.576;2023-12-14T05:04:10;4.45;;;4.05;;
18499;SDS011;9379;52.134;11.576;2023-12-14T05:06:40;5.80;;;3.28;;
18499;SDS011;9379;52.134;11.576;2023-12-14T05:09:07;4.18;;;3.78;;
18499;SDS011;9379;52.134;11.576;2023-12-14T05:11:36;4.70;;;4.25;;
18499;SDS011;9379;52.134;11.576;2023-12-14T05:14:03;4.07;;;3.75;;
18499;SDS011;9379;52.134;11.576;2023-12-14T05:16:32;3.97;;;3.58;;
18499;SDS011;9379;52.134;11.576;2023-12-14T05:18:59;3.42;;;3.13;;
18499;SDS011;9379;52.134;11.576;2023-12-14T05:21:26;3.90;;;3.13;;
18499;SDS011;9379;52.134;11.576;2023-12-14T05:23:53;4.25;;;3.25;;
18499;SDS011;9379;52.134;11.576;2023-12-14T05:26:20;3.97;;;3.58;;
18499;SDS011;9379;52.134;11.576;2023-12-14T05:28:46;3.55;;;3.25;;
18499;SDS011;9379;52.134;11.576;2023-12-14T05:31:13;4.50;;;4.10;;
18499;SDS011;9379;52.134;11.576;2023-12-14T05:33:41;3.17;;;2.80;;
18499;SDS011;9379;52.134;11.576;2023-12-14T05:36:08;3.33;;;2.80;;
18499;SDS011;9379;52.134;11.576;2023-12-14T05:38:35;3.45;;;3.15;;
18499;SDS011;9379;52.134;11.576;2023-12-14T05:41:04;3.28;;;2.97;;
18499;SDS011;9379;52.134;11.576;2023-12-14T05:43:31;4.50;;;4.07;;
18499;SDS011;9379;52.134;11.576;2023-12-14T05:45:58;4.22;;;3.92;;
18499;SDS011;9379;52.134;11.576;2023-12-14T05:48:25;3.72;;;3.42;;
18499;SDS011;9379;52.134;11.576;2023-12-14T05:50:56;4.93;;;4.05;;
18499;SDS011;9379;52.134;11.576;2023-12-14T05:53:23;5.43;;;3.45;;
18499;SDS011;9379;52.134;11.576;2023-12-14T05:55:50;4.00;;;3.58;;
18499;SDS011;9379;52.134;11.576;2023-12-14T05:58:17;2.83;;;2.63;;
18499;SDS011;9379;52.134;11.576;2023-12-14T06:00:43;4.43;;;4.03;;
18499;SDS011;9379;52.134;11.576;2023-12-14T06:03:10;4.07;;;3.67;;
18499;SDS011;9379;52.134;11.576;2023-12-14T06:05:37;3.50;;;3.17;;
18499;SDS011;9379;52.134;11.576;2023-12-14T06:08:06;4.68;;;3.15;;
18499;SDS011;9379;52.134;11.576;2023-12-14T06:10:33;4.55;;;4.15;;
18499;SDS011;9379;52.134;11.576;2023-12-14T06:13:00;4.15;;;3.75;;
18499;SDS011;9379;52.134;11.576;2023-12-14T06:15:26;3.40;;;3.10;;
18499;SDS011;9379;52.134;11.576;2023-12-14T06:17:53;6.55;;;4.10;;
18499;SDS011;9379;52.134;11.576;2023-12-14T06:20:20;4.63;;;3.70;;
18499;SDS011;9379;52.134;11.576;2023-12-14T06:22:48;5.03;;;4.45;;
18499;SDS011;9379;52.134;11.576;2023-12-14T06:25:16;3.92;;;3.40;;
18499;SDS011;9379;52.134;11.576;2023-12-14T06:27:43;8.18;;;4.38;;
18499;SDS011;9379;52.134;11.576;2023-12-14T06:30:12;5.35;;;4.90;;
18499;SDS011;9379;52.134;11.576;2023-12-14T06:32:39;4.22;;;3.85;;
18499;SDS011;9379;52.134;11.576;2023-12-14T06:35:06;5.32;;;4.82;;
18499;SDS011;9379;52.134;11.576;2023-12-14T06:37:33;5.57;;;4.95;;
18499;SDS011;9379;52.134;11.576;2023-12-14T06:40:00;3.70;;;3.40;;
18499;SDS011;9379;52.134;11.576;2023-12-14T06:42:29;5.18;;;4.68;;
18499;SDS011;9379;52.134;11.576;2023-12-14T06:44:56;4.10;;;3.75;;
18499;SDS011;9379;52.134;11.576;2023-12-14T06:47:22;6.95;;;4.07;;
18499;SDS011;9379;52.134;11.576;2023-12-14T06:49:49;4.03;;;3.30;;
18499;SDS011;9379;52.134;11.576;2023-12-14T06:52:16;5.05;;;3.88;;
18499;SDS011;9379;52.134;11.576;2023-12-14T06:54:43;10.00;;;5.28;;
18499;SDS011;9379;52.134;11.576;2023-12-14T06:57:10;4.45;;;3.58;;
18499;SDS011;9379;52.134;11.576;2023-12-14T06:59:38;3.22;;;2.85;;
18499;SDS011;9379;52.134;11.576;2023-12-14T07:02:05;4.38;;;3.67;;
18499;SDS011;9379;52.134;11.576;2023-12-14T07:04:33;3.95;;;2.83;;
18499;SDS011;9379;52.134;11.576;2023-12-14T07:06:59;3.58;;;3.25;;
18499;SDS011;9379;52.134;11.576;2023-12-14T07:09:26;4.28;;;3.80;;
18499;SDS011;9379;52.134;11.576;2023-12-14T07:11:54;4.03;;;3.65;;
18499;SDS011;9379;52.134;11.576;2023-12-14T07:14:21;4.20;;;3.55;;
18499;SDS011;9379;52.134;11.576;2023-12-14T07:16:50;7.80;;;5.43;;
18499;SDS011;9379;52.134;11.576;2023-12-14T07:19:16;4.35;;;3.90;;
18499;SDS011;9379;52.134;11.576;2023-12-14T07:21:43;5.75;;;4.30;;
18499;SDS011;9379;52.134;11.576;2023-12-14T07:24:10;5.55;;;5.05;;
18499;SDS011;9379;52.134;11.576;2023-12-14T07:26:37;5.82;;;3.78;;
18499;SDS011;9379;52.134;11.576;2023-12-14T07:29:04;5.75;;;5.07;;
18499;SDS011;9379;52.134;11.576;2023-12-14T07:31:31;3.92;;;3.33;;
18499;SDS011;9379;52.134;11.576;2023-12-14T07:34:00;3.83;;;3.42;;
18499;SDS011;9379;52.134;11.576;2023-12-14T07:36:27;5.07;;;4.50;;
18499;SDS011;9379;52.134;11.576;2023-12-14T07:38:54;4.53;;;4.13;;
18499;SDS011;9379;52.134;11.576;2023-12-14T07:41:21;8.45;;;5.30;;
18499;SDS011;9379;52.134;11.576;2023-12-14T07:43:52;4.60;;;4.15;;
18499;SDS011;9379;52.134;11.576;2023-12-14T07:46:19;5.65;;;5.10;;
18499;SDS011;9379;52.134;11.576;2023-12-14T07:48:46;6.53;;;4.95;;
18499;SDS011;9379;52.134;11.576;2023-12-14T07:51:14;5.03;;;4.43;;
18499;SDS011;9379;52.134;11.576;2023-12-14T07:53:41;6.10;;;4.25;;
18499;SDS011;9379;52.134;11.576;2023-12-14T07:56:08;9.32;;;5.30;;
18499;SDS011;9379;52.134;11.576;2023-12-14T07:58:35;7.65;;;5.32;;
18499;SDS011;9379;52.134;11.576;2023-12-14T08:01:02;5.28;;;4.78;;
18499;SDS011;9379;52.134;11.576;2023-12-14T08:03:29;4.75;;;4.13;;
18499;SDS011;9379;52.134;11.576;2023-12-14T08:05:56;6.60;;;6.00;;
18499;SDS011;9379;52.134;11.576;2023-12-14T08:08:25;7.40;;;4.80;;
18499;SDS011;9379;52.134;11.576;2023-12-14T08:13:19;4.60;;;4.20;;
18499;SDS011;9379;52.134;11.576;2023-12-14T08:15:46;8.43;;;5.38;;
18499;SDS011;9379;52.134;11.576;2023-12-14T08:18:13;3.78;;;3.45;;
18499;SDS011;9379;52.134;11.576;2023-12-14T08:20:39;6.13;;;5.53;;
18499;SDS011;9379;52.134;11.576;2023-12-14T08:23:06;5.47;;;4.72;;
18499;SDS011;9379;52.134;11.576;2023-12-14T08:25:34;6.47;;;5.63;;
18499;SDS011;9379;52.134;11.576;2023-12-14T08:28:01;5.88;;;5.38;;
18499;SDS011;9379;52.134;11.576;2023-12-14T08:30:28;5.30;;;4.18;;
18499;SDS011;9379;52.134;11.576;2023-12-14T08:32:54;5.85;;;5.15;;
18499;SDS011;9379;52.134;11.576;2023-12-14T08:35:21;6.60;;;4.95;;
18499;SDS011;9379;52.134;11.576;2023-12-14T08:37:48;6.20;;;4.72;;
18499;SDS011;9379;52.134;11.576;2023-12-14T08:40:15;6.30;;;5.47;;
18499;SDS011;9379;52.134;11.576;2023-12-14T08:42:43;6.05;;;5.35;;
18499;SDS011;9379;52.134;11.576;2023-12-14T08:45:10;5.30;;;4.80;;
18499;SDS011;9379;52.134;11.576;2023-12-14T08:47:37;5.63;;;5.13;;
18499;SDS011;9379;52.134;11.576;2023-12-14T08:50:05;9.57;;;6.15;;
18499;SDS011;9379;52.134;11.576;2023-12-14T08:52:33;5.88;;;5.38;;
18499;SDS011;9379;52.134;11.576;2023-12-14T08:54:59;8.25;;;6.00;;
18499;SDS011;9379;52.134;11.576;2023-12-14T08:57:27;6.85;;;5.55;;
18499;SDS011;9379;52.134;11.576;2023-12-14T08:59:55;6.35;;;5.72;;
18499;SDS011;9379;52.134;11.576;2023-12-14T09:02:22;5.90;;;4.88;;
18499;SDS011;9379;52.134;11.576;2023-12-14T09:04:49;5.95;;;5.38;;
18499;SDS011;9379;52.134;11.576;2023-12-14T09:07:20;6.07;;;4.97;;
18499;SDS011;9379;52.134;11.576;2023-12-14T09:09:47;7.03;;;5.68;;
18499;SDS011;9379;52.134;11.576;2023-12-14T09:12:13;4.45;;;4.00;;
18499;SDS011;9379;52.134;11.576;2023-12-14T09:14:40;5.05;;;4.47;;
18499;SDS011;9379;52.134;11.576;2023-12-14T09:17:08;6.47;;;4.63;;
18499;SDS011;9379;52.134;11.576;2023-12-14T09:19:35;6.97;;;5.68;;
18499;SDS011;9379;52.134;11.576;2023-12-14T09:22:02;5.53;;;4.95;;
18499;SDS011;9379;52.134;11.576;2023-12-14T09:24:29;6.05;;;4.15;;
18499;SDS011;9379;52.134;11.576;2023-12-14T09:26:56;6.45;;;5.00;;
18499;SDS011;9379;52.134;11.576;2023-12-14T09:29:23;6.03;;;5.20;;
18499;SDS011;9379;52.134;11.576;2023-12-14T09:31:49;3.90;;;3.55;;
18499;SDS011;9379;52.134;11.576;2023-12-14T09:34:18;6.43;;;4.65;;
18499;SDS011;9379;52.134;11.576;2023-12-14T09:36:44;8.57;;;6.07;;
18499;SDS011;9379;52.134;11.576;2023-12-14T09:39:11;6.95;;;5.80;;
18499;SDS011;9379;52.134;11.576;2023-12-14T09:41:40;8.63;;;7.38;;
18499;SDS011;9379;52.134;11.576;2023-12-14T09:44:07;10.40;;;6.65;;
18499;SDS011;9379;52.134;11.576;2023-12-14T09:46:36;8.75;;;7.03;;
18499;SDS011;9379;52.134;11.576;2023-12-14T09:49:04;7.82;;;6.85;;
18499;SDS011;9379;52.134;11.576;2023-12-14T09:51:32;13.60;;;8.68;;
18499;SDS011;9379;52.134;11.576;2023-12-14T09:53:58;8.82;;;7.93;;
18499;SDS011;9379;52.134;11.576;2023-12-14T09:56:25;8.80;;;7.95;;
18499;SDS011;9379;52.134;11.576;2023-12-14T09:58:52;9.63;;;8.63;;
18499;SDS011;9379;52.134;11.576;2023-12-14T10:01:22;10.00;;;8.90;;
18499;SDS011;9379;52.134;11.576;2023-12-14T10:03:50;10.50;;;8.00;;
18499;SDS011;9379;52.134;11.576;2023-12-14T10:06:34;11.25;;;7.80;;
18499;SDS011;9379;52.134;11.576;2023-12-14T10:09:01;8.82;;;7.00;;
18499;SDS011;9379;52.134;11.576;2023-12-14T10:11:28;12.85;;;9.48;;
18499;SDS011;9379;52.134;11.576;2023-12-14T10:13:55;10.45;;;8.35;;
18499;SDS011;9379;52.134;11.576;2023-12-14T10:16:28;9.80;;;8.60;;
18499;SDS011;9379;52.134;11.576;2023-12-14T10:18:56;17.58;;;8.27;;
18499;SDS011;9379;52.134;11.576;2023-12-14T10:21:24;12.98;;;8.25;;
18499;SDS011;9379;52.134;11.576;2023-12-14T10:23:53;7.72;;;6.38;;
18499;SDS011;9379;52.134;11.576;2023-12-14T10:26:21;8.52;;;7.63;;
18499;SDS011;9379;52.134;11.576;2023-12-14T10:28:50;7.72;;;6.93;;
18499;SDS011;9379;52.134;11.576;2023-12-14T10:31:18;8.00;;;6.38;;
18499;SDS011;9379;52.134;11.576;2023-12-14T10:33:46;13.75;;;8.05;;
18499;SDS011;9379;52.134;11.576;2023-12-14T10:36:13;9.90;;;7.13;;
18499;SDS011;9379;52.134;11.576;2023-12-14T10:38:44;10.55;;;9.05;;
18499;SDS011;9379;52.134;11.576;2023-12-14T10:41:15;7.60;;;6.38;;
18499;SDS011;9379;52.134;11.576;2023-12-14T10:43:43;9.73;;;8.50;;
18499;SDS011;9379;52.134;11.576;2023-12-14T10:46:12;9.68;;;8.07;;
18499;SDS011;9379;52.134;11.576;2023-12-14T10:48:40;8.55;;;7.72;;
18499;SDS011;9379;52.134;11.576;2023-12-14T10:51:10;9.00;;;7.85;;
18499;SDS011;9379;52.134;11.576;2023-12-14T10:53:38;10.95;;;7.95;;
18499;SDS011;9379;52.134;11.576;2023-12-14T10:56:09;12.23;;;9.35;;
18499;SDS011;9379;52.134;11.576;2023-12-14T10:58:45;9.68;;;7.60;;
18499;SDS011;9379;52.134;11.576;2023-12-14T11:01:14;8.15;;;6.82;;
18499;SDS011;9379;52.134;11.576;2023-12-14T11:03:42;11.40;;;8.82;;
18499;SDS011;9379;52.134;11.576;2023-12-14T11:08:59;11.00;;;8.23;;
18499;SDS011;9379;52.134;11.576;2023-12-14T11:11:31;12.77;;;7.32;;
18499;SDS011;9379;52.134;11.576;2023-12-14T11:14:08;10.65;;;6.55;;
18499;SDS011;9379;52.134;11.576;2023-12-14T11:16:37;7.35;;;6.57;;
18499;SDS011;9379;52.134;11.576;2023-12-14T11:19:28;6.65;;;5.88;;
18499;SDS011;9379;52.134;11.576;2023-12-14T11:22:08;8.98;;;7.22;;
18499;SDS011;9379;52.134;11.576;2023-12-14T11:24:42;9.85;;;6.18;;
18499;SDS011;9379;52.134;11.576;2023-12-14T11:27:16;9.35;;;7.43;;
18499;SDS011;9379;52.134;11.576;2023-12-14T11:29:48;12.65;;;8.75;;
18499;SDS011;9379;52.134;11.576;2023-12-14T11:32:16;6.93;;;6.20;;
18499;SDS011;9379;52.134;11.576;2023-12-14T11:34:42;6.97;;;6.18;;
18499;SDS011;9379;52.134;11.576;2023-12-14T11:37:09;7.82;;;7.13;;
18499;SDS011;9379;52.134;11.576;2023-12-14T11:39:37;10.63;;;8.40;;
18499;SDS011;9379;52.134;11.576;2023-12-14T11:42:05;11.05;;;9.15;;
18499;SDS011;9379;52.134;11.576;2023-12-14T11:44:35;15.18;;;9.55;;
18499;SDS011;9379;52.134;11.576;2023-12-14T11:47:03;15.38;;;8.57;;
18499;SDS011;9379;52.134;11.576;2023-12-14T11:49:30;8.40;;;7.40;;
18499;SDS011;9379;52.134;11.576;2023-12-14T11:52:01;10.23;;;8.88;;
18499;SDS011;9379;52.134;11.576;2023-12-14T11:54:28;8.75;;;6.60;;
18499;SDS011;9379;52.134;11.576;2023-12-14T11:56:55;7.90;;;6.75;;
18499;SDS011;9379;52.134;11.576;2023-12-14T11:59:22;10.50;;;6.25;;
18499;SDS011;9379;52.134;11.576;2023-12-14T12:01:56;7.38;;;6.72;;
18499;SDS011;9379;52.134;11.576;2023-12-14T12:04:25;10.57;;;8.23;;
18499;SDS011;9379;52.134;11.576;2023-12-14T12:06:59;9.68;;;7.65;;
18499;SDS011;9379;52.134;11.576;2023-12-14T12:09:37;9.52;;;7.85;;
18499;SDS011;9379;52.134;11.576;2023-12-14T12:12:06;9.95;;;8.73;;
18499;SDS011;9379;52.134;11.576;2023-12-14T12:14:33;8.73;;;7.20;;
18499;SDS011;9379;52.134;11.576;2023-12-14T12:17:00;9.43;;;8.00;;
18499;SDS011;9379;52.134;11.576;2023-12-14T12:19:31;9.98;;;7.75;;
18499;SDS011;9379;52.134;11.576;2023-12-14T12:21:58;10.30;;;8.30;;
18499;SDS011;9379;52.134;11.576;2023-12-14T12:24:25;9.15;;;7.68;;
18499;SDS011;9379;52.134;11.576;2023-12-14T12:26:52;9.25;;;7.28;;
18499;SDS011;9379;52.134;11.576;2023-12-14T12:29:19;8.77;;;6.88;;
18499;SDS011;9379;52.134;11.576;2023-12-14T12:31:46;9.15;;;7.68;;
18499;SDS011;9379;52.134;11.576;2023-12-14T12:34:12;7.20;;;5.35;;
18499;SDS011;9379;52.134;11.576;2023-12-14T12:36:41;7.03;;;6.07;;
18499;SDS011;9379;52.134;11.576;2023-12-14T12:39:08;7.75;;;6.32;;
18499;SDS011;9379;52.134;11.576;2023-12-14T12:41:35;6.72;;;6.05;;
18499;SDS011;9379;52.134;11.576;2023-12-14T12:44:03;6.45;;;5.82;;
18499;SDS011;9379;52.134;11.576;2023-12-14T12:46:32;5.20;;;3.90;;
18499;SDS011;9379;52.134;11.576;2023-12-14T12:49:00;5.78;;;5.18;;
18499;SDS011;9379;52.134;11.576;2023-12-14T12:51:27;5.60;;;5.05;;
18499;SDS011;9379;52.134;11.576;2023-12-14T12:53:56;3.90;;;3.60;;
18499;SDS011;9379;52.134;11.576;2023-12-14T12:56:24;6.05;;;5.13;;
18499;SDS011;9379;52.134;11.576;2023-12-14T12:58:52;4.20;;;3.80;;
18499;SDS011;9379;52.134;11.576;2023-12-14T13:01:19;5.57;;;3.80;;
18499;SDS011;9379;52.134;11.576;2023-12-14T13:03:51;5.28;;;4.78;;
18499;SDS011;9379;52.134;11.576;2023-12-14T13:06:20;4.97;;;3.72;;
18499;SDS011;9379;52.134;11.576;2023-12-14T13:08:48;4.90;;;4.30;;
18499;SDS011;9379;52.134;11.576;2023-12-14T13:11:17;5.22;;;4.50;;
18499;SDS011;9379;52.134;11.576;2023-12-14T13:13:43;4.32;;;3.90;;
18499;SDS011;9379;52.134;11.576;2023-12-14T13:16:10;7.07;;;3.83;;
18499;SDS011;9379;52.134;11.576;2023-12-14T13:18:39;4.43;;;3.70;;
18499;SDS011;9379;52.134;11.576;2023-12-14T13:21:06;5.30;;;4.20;;
18499;SDS011;9379;52.134;11.576;2023-12-14T13:23:33;4.35;;;3.83;;
18499;SDS011;9379;52.134;11.576;2023-12-14T13:26:00;6.80;;;4.05;;
18499;SDS011;9379;52.134;11.576;2023-12-14T13:28:28;6.88;;;4.35;;
18499;SDS011;9379;52.134;11.576;2023-12-14T13:30:55;4.18;;;3.63;;
18499;SDS011;9379;52.134;11.576;2023-12-14T13:33:22;5.55;;;4.95;;
18499;SDS011;9379;52.134;11.576;2023-12-14T13:35:49;8.52;;;4.75;;
18499;SDS011;9379;52.134;11.576;2023-12-14T13:38:15;4.50;;;3.53;;
18499;SDS011;9379;52.134;11.576;2023-12-14T13:40:43;6.10;;;3.78;;
18499;SDS011;9379;52.134;11.576;2023-12-14T13:43:10;8.27;;;4.78;;
18499;SDS011;9379;52.134;11.576;2023-12-14T13:45:38;4.72;;;4.32;;
18499;SDS011;9379;52.134;11.576;2023-12-14T13:48:07;6.32;;;4.38;;
18499;SDS011;9379;52.134;11.576;2023-12-14T13:50:34;5.55;;;4.47;;
18499;SDS011;9379;52.134;11.576;2023-12-14T13:53:01;4.75;;;4.05;;
18499;SDS011;9379;52.134;11.576;2023-12-14T13:55:29;4.88;;;3.67;;
18499;SDS011;9379;52.134;11.576;2023-12-14T13:57:56;5.90;;;3.60;;
18499;SDS011;9379;52.134;11.576;2023-12-14T14:00:25;4.68;;;4.28;;
18499;SDS011;9379;52.134;11.576;2023-12-14T14:02:53;4.53;;;3.35;;
18499;SDS011;9379;52.134;11.576;2023-12-14T14:05:21;5.15;;;4.65;;
18499;SDS011;9379;52.134;11.576;2023-12-14T14:07:48;4.15;;;3.75;;
18499;SDS011;9379;52.134;11.576;2023-12-14T14:10:15;5.00;;;4.50;;
18499;SDS011;9379;52.134;11.576;2023-12-14T14:12:42;4.45;;;3.33;;
18499;SDS011;9379;52.134;11.576;2023-12-14T14:15:09;4.97;;;3.78;;
18499;SDS011;9379;52.134;11.576;2023-12-14T14:17:36;6.50;;;4.68;;
18499;SDS011;9379;52.134;11.576;2023-12-14T14:20:05;4.30;;;4.00;;
18499;SDS011;9379;52.134;11.576;2023-12-14T14:22:35;5.03;;;4.43;;
18499;SDS011;9379;52.134;11.576;2023-12-14T14:25:02;4.32;;;3.90;;
18499;SDS011;9379;52.134;11.576;2023-12-14T14:27:31;4.43;;;4.00;;
18499;SDS011;9379;52.134;11.576;2023-12-14T14:29:58;5.50;;;4.72;;
18499;SDS011;9379;52.134;11.576;2023-12-14T14:32:25;8.82;;;3.60;;
18499;SDS011;9379;52.134;11.576;2023-12-14T14:34:52;6.45;;;4.85;;
18499;SDS011;9379;52.134;11.576;2023-12-14T14:37:23;4.20;;;3.45;;
18499;SDS011;9379;52.134;11.576;2023-12-14T14:39:50;6.25;;;4.63;;
18499;SDS011;9379;52.134;11.576;2023-12-14T14:42:17;3.83;;;3.33;;
18499;SDS011;9379;52.134;11.576;2023-12-14T14:44:44;4.82;;;4.43;;
18499;SDS011;9379;52.134;11.576;2023-12-14T14:47:11;4.40;;;4.05;;
18499;SDS011;9379;52.134;11.576;2023-12-14T14:49:38;4.97;;;4.18;;
18499;SDS011;9379;52.134;11.576;2023-12-14T14:52:05;3.63;;;3.33;;
18499;SDS011;9379;52.134;11.576;2023-12-14T14:54:33;5.00;;;4.25;;